createdAt,value
2024-01-20T00:00:48.410Z,98945.47
2024-01-20T00:03:15.539Z,98955.06
2024-01-20T00:05:43.066Z,98948.78
2024-01-20T00:08:10.253Z,98951.31
2024-01-20T00:10:38.365Z,98960.06
2024-01-20T00:13:05.869Z,98960.28
2024-01-20T00:15:33.765Z,98964.63
2024-01-20T00:18:01.229Z,98964.63
2024-01-20T00:20:28.481Z,98955.88
2024-01-20T00:22:55.782Z,98964.69
2024-01-20T00:25:23.052Z,98969.72
2024-01-20T00:27:53.817Z,98974.38
2024-01-20T00:30:22.359Z,98970.81
2024-01-20T00:32:49.791Z,98962.63
2024-01-20T00:35:17.310Z,98961.69
2024-01-20T00:37:44.413Z,98966.56
2024-01-20T00:40:12.205Z,98973.16
2024-01-20T00:42:39.361Z,98975.38
2024-01-20T00:45:07.255Z,98977.66
2024-01-20T00:47:36.786Z,98980.03
2024-01-20T00:50:06.389Z,98965.06
2024-01-20T00:52:33.663Z,98963.50
2024-01-20T00:55:00.849Z,98962.91
2024-01-20T00:57:27.924Z,98962.66
2024-01-20T00:59:56.623Z,98968.88
2024-01-20T01:02:26.253Z,98970.53
2024-01-20T01:04:53.709Z,98973.25
2024-01-20T01:07:21.050Z,98982.44
2024-01-20T01:09:49.800Z,98966.50
2024-01-20T01:12:17.012Z,98973.53
2024-01-20T01:14:44.096Z,98976.03
2024-01-20T01:17:11.291Z,98976.75
2024-01-20T01:19:38.452Z,98978.25
2024-01-20T01:22:05.637Z,98971.47
2024-01-20T01:24:32.865Z,98969.47
2024-01-20T01:27:00.006Z,98971.97
2024-01-20T01:29:27.337Z,98975.31
2024-01-20T01:31:55.512Z,98969.94
2024-01-20T01:34:22.768Z,98964.84
2024-01-20T01:36:50.048Z,98969.34
2024-01-20T01:39:18.957Z,98972.34
2024-01-20T01:41:46.140Z,98967.00
2024-01-20T01:44:13.433Z,98981.75
2024-01-20T01:46:41.294Z,98979.97
2024-01-20T01:49:09.089Z,98977.13
2024-01-20T01:51:36.583Z,98980.81
2024-01-20T01:54:04.784Z,98977.00
2024-01-20T01:56:32.756Z,98972.19
2024-01-20T01:59:00.188Z,98978.59
2024-01-20T02:01:27.449Z,98975.94
2024-01-20T02:03:54.715Z,98983.56
2024-01-20T02:06:22.330Z,98989.63
2024-01-20T02:08:49.708Z,98971.31
2024-01-20T02:11:17.423Z,98977.88
2024-01-20T02:13:45.122Z,98977.03
2024-01-20T02:16:12.357Z,98976.22
2024-01-20T02:19:06.830Z,98970.81
2024-01-20T02:21:35.881Z,98974.88
2024-01-20T02:24:05.651Z,98987.00
2024-01-20T02:26:32.909Z,98992.38
2024-01-20T02:29:00.037Z,98983.19
2024-01-20T02:31:27.117Z,98984.13
2024-01-20T02:33:54.426Z,98991.88
2024-01-20T02:36:21.702Z,98998.44
2024-01-20T02:38:49.700Z,98982.50
2024-01-20T02:41:16.860Z,98989.63
2024-01-20T02:43:43.885Z,98978.94
2024-01-20T02:46:10.880Z,98980.50
2024-01-20T02:48:38.087Z,98978.09
2024-01-20T02:51:05.657Z,98981.22
2024-01-20T02:53:32.734Z,98970.75
2024-01-20T02:55:59.873Z,98976.38
2024-01-20T02:58:26.952Z,98986.75
2024-01-20T03:00:54.383Z,98980.78
2024-01-20T03:03:21.562Z,98991.69
2024-01-20T03:05:48.826Z,98998.13
2024-01-20T03:08:16.168Z,99006.91
2024-01-20T03:10:43.400Z,99014.31
2024-01-20T03:13:10.468Z,99021.44
2024-01-20T03:15:37.596Z,99022.28
2024-01-20T03:18:05.214Z,99026.91
2024-01-20T03:20:32.315Z,99024.56
2024-01-20T03:22:59.452Z,99036.06
2024-01-20T03:25:26.528Z,99041.22
2024-01-20T03:27:56.834Z,99036.06
2024-01-20T03:30:23.996Z,99037.78
2024-01-20T03:32:52.812Z,99034.41
2024-01-20T03:35:20.253Z,99023.44
2024-01-20T03:37:47.448Z,99024.78
2024-01-20T03:40:15.624Z,99031.06
2024-01-20T03:42:42.864Z,99019.06
2024-01-20T03:45:10.583Z,99020.59
2024-01-20T03:47:38.227Z,99025.00
2024-01-20T03:50:07.982Z,99018.09
2024-01-20T03:52:35.208Z,99019.06
2024-01-20T03:55:02.326Z,99023.13
2024-01-20T03:57:31.626Z,99031.69
2024-01-20T03:59:59.385Z,99027.84
2024-01-20T04:02:27.316Z,99025.81
2024-01-20T04:04:54.835Z,99023.13
2024-01-20T04:07:24.312Z,99038.00
2024-01-20T04:09:51.494Z,99039.03
2024-01-20T04:12:19.458Z,99046.53
2024-01-20T04:14:46.636Z,99048.47
2024-01-20T04:17:13.973Z,99045.00
2024-01-20T04:19:41.355Z,99053.47
2024-01-20T04:22:08.704Z,99058.59
2024-01-20T04:24:35.858Z,99055.88
2024-01-20T04:27:03.022Z,99054.09
2024-01-20T04:29:30.082Z,99049.59
2024-01-20T04:31:57.401Z,99045.88
2024-01-20T04:34:24.590Z,99042.78
2024-01-20T04:36:51.802Z,99049.22
2024-01-20T04:39:18.989Z,99046.00
2024-01-20T04:41:46.136Z,99049.81
2024-01-20T04:44:20.430Z,99055.97
2024-01-20T04:47:07.328Z,99058.38
2024-01-20T04:49:40.764Z,99063.72
2024-01-20T04:52:15.800Z,99060.72
2024-01-20T04:54:54.187Z,99060.31
2024-01-20T04:57:36.593Z,99063.78
2024-01-20T05:03:39.183Z,99063.28
2024-01-20T05:06:29.667Z,99067.09
2024-01-20T05:09:18.874Z,99069.72
2024-01-20T05:12:04.605Z,99063.03
2024-01-20T05:15:10.717Z,99058.78
2024-01-20T05:18:45.333Z,99079.97
2024-01-20T05:21:16.087Z,99084.50
2024-01-20T05:23:43.331Z,99084.72
2024-01-20T05:26:10.514Z,99090.19
2024-01-20T05:28:37.584Z,99094.69
2024-01-20T05:31:04.772Z,99100.00
2024-01-20T05:33:35.066Z,99098.88
2024-01-20T05:36:02.214Z,99100.66
2024-01-20T05:38:29.370Z,99099.34
2024-01-20T05:40:57.513Z,99114.41
2024-01-20T05:43:24.818Z,99102.03
2024-01-20T05:45:51.929Z,99107.88
2024-01-20T05:48:19.239Z,99111.69
2024-01-20T05:50:47.325Z,99105.84
2024-01-20T05:53:15.510Z,99101.44
2024-01-20T05:55:42.552Z,99105.28
2024-01-20T05:58:09.592Z,99109.59
2024-01-20T06:00:36.769Z,99108.13
2024-01-20T06:03:04.209Z,99117.91
2024-01-20T06:05:31.372Z,99113.28
2024-01-20T06:07:58.495Z,99110.56
2024-01-20T06:10:25.932Z,99120.00
2024-01-20T06:12:53.211Z,99113.94
2024-01-20T06:15:20.361Z,99104.50
2024-01-20T06:17:47.482Z,99108.91
2024-01-20T06:20:16.855Z,99118.69
2024-01-20T06:22:43.871Z,99113.44
2024-01-20T06:25:11.392Z,99118.59
2024-01-20T06:27:38.620Z,99115.47
2024-01-20T06:30:06.452Z,99115.59
2024-01-20T06:32:33.695Z,99117.88
2024-01-20T06:35:00.924Z,99120.84
2024-01-20T06:37:28.017Z,99125.25
2024-01-20T06:39:55.050Z,99128.69
2024-01-20T06:42:22.725Z,99127.63
2024-01-20T06:44:49.803Z,99125.72
2024-01-20T06:47:17.026Z,99134.41
2024-01-20T06:49:50.680Z,99126.78
2024-01-20T06:52:18.105Z,99130.75
2024-01-20T06:54:45.348Z,99126.09
2024-01-20T06:57:13.904Z,99138.50
2024-01-20T06:59:50.810Z,99137.31
2024-01-20T07:02:17.952Z,99141.50
2024-01-20T07:04:54.208Z,99145.53
2024-01-20T07:07:27.173Z,99144.84
2024-01-20T07:09:54.243Z,99150.47
2024-01-20T07:12:45.906Z,99155.00
2024-01-20T07:15:23.933Z,99148.03
2024-01-20T07:17:58.846Z,99138.59
2024-01-20T07:20:26.484Z,99144.56
2024-01-20T07:22:53.652Z,99154.38
2024-01-20T07:25:20.840Z,99158.44
2024-01-20T07:27:48.477Z,99153.56
2024-01-20T07:30:15.750Z,99153.00
2024-01-20T07:32:42.866Z,99163.28
2024-01-20T07:35:10.459Z,99162.53
2024-01-20T07:37:37.700Z,99166.22
2024-01-20T07:40:10.816Z,99172.78
2024-01-20T07:42:37.972Z,99174.22
2024-01-20T07:45:05.704Z,99161.56
2024-01-20T07:47:32.907Z,99177.81
2024-01-20T07:50:00.207Z,99176.41
2024-01-20T07:52:27.372Z,99170.69
2024-01-20T07:55:20.400Z,99175.72
2024-01-20T07:57:47.457Z,99167.38
2024-01-20T08:00:14.830Z,99162.34
2024-01-20T08:02:48.447Z,99166.75
2024-01-20T08:05:15.662Z,99161.66
2024-01-20T08:07:43.711Z,99163.06
2024-01-20T08:10:11.362Z,99163.78
2024-01-20T08:12:41.094Z,99173.31
2024-01-20T08:15:10.974Z,99174.78
2024-01-20T08:17:38.430Z,99175.72
2024-01-20T08:24:35.159Z,99165.13
2024-01-20T08:27:05.861Z,99171.94
2024-01-20T08:29:35.194Z,99169.06
2024-01-20T08:32:02.235Z,99171.72
2024-01-20T08:34:29.429Z,99178.16
2024-01-20T08:36:56.527Z,99178.19
2024-01-20T08:39:23.721Z,99174.84
2024-01-20T08:41:50.906Z,99169.97
2024-01-20T08:45:01.366Z,99168.88
2024-01-20T08:48:07.643Z,99171.25
2024-01-20T08:50:48.771Z,99178.66
2024-01-20T08:53:15.871Z,99175.31
2024-01-20T08:55:43.046Z,99175.41
2024-01-20T08:58:11.226Z,99175.41
2024-01-20T09:00:38.917Z,99184.09
2024-01-20T09:03:06.177Z,99180.53
2024-01-20T09:05:38.160Z,99182.94
2024-01-20T09:08:09.142Z,99186.25
2024-01-20T09:10:37.635Z,99182.06
2024-01-20T09:13:05.298Z,99194.38
2024-01-20T09:15:33.360Z,99193.53
2024-01-20T09:18:01.250Z,99189.38
2024-01-20T09:20:28.715Z,99186.88
2024-01-20T09:22:58.177Z,99184.00
2024-01-20T09:25:25.290Z,99197.03
2024-01-20T09:27:52.532Z,99197.03
2024-01-20T09:30:19.657Z,99197.75
2024-01-20T09:32:47.842Z,99201.81
2024-01-20T09:35:14.995Z,99199.91
2024-01-20T09:37:44.969Z,99201.81
2024-01-20T09:40:14.756Z,99197.66
2024-01-20T09:42:42.758Z,99204.59
2024-01-20T09:45:13.319Z,99215.09
2024-01-20T09:47:43.126Z,99215.09
2024-01-20T09:50:10.975Z,99217.81
2024-01-20T09:52:56.576Z,99203.47
2024-01-20T09:55:24.940Z,99206.94
2024-01-20T09:57:53.446Z,99202.66
2024-01-20T10:00:23.203Z,99217.78
2024-01-20T10:02:50.458Z,99216.13
2024-01-20T10:05:29.853Z,99213.28
2024-01-20T10:07:58.253Z,99215.16
2024-01-20T10:10:25.329Z,99221.75
2024-01-20T10:12:54.749Z,99227.13
2024-01-20T10:15:29.833Z,99224.97
2024-01-20T10:18:00.850Z,99231.06
2024-01-20T10:20:32.651Z,99231.44
2024-01-20T10:23:05.379Z,99229.41
2024-01-20T10:25:35.683Z,99220.69
2024-01-20T10:28:03.090Z,99230.97
2024-01-20T10:30:31.365Z,99227.38
2024-01-20T10:35:30.735Z,99232.63
2024-01-20T10:38:01.583Z,99226.31
2024-01-20T10:40:29.163Z,99224.50
2024-01-20T10:43:01.350Z,99230.59
2024-01-20T10:45:34.443Z,99229.78
2024-01-20T10:48:08.195Z,99230.59
2024-01-20T10:50:39.981Z,99229.78
2024-01-20T10:53:08.773Z,99238.34
2024-01-20T10:55:48.400Z,99241.44
2024-01-20T10:58:23.038Z,99247.53
2024-01-20T11:00:51.874Z,99238.81
2024-01-20T11:03:21.969Z,99239.06
2024-01-20T11:05:49.714Z,99240.59
2024-01-20T11:08:25.655Z,99245.38
2024-01-20T11:10:55.478Z,99241.81
2024-01-20T11:13:29.264Z,99251.03
2024-01-20T11:15:59.167Z,99248.88
2024-01-20T11:18:28.784Z,99252.09
2024-01-20T11:21:04.802Z,99253.16
2024-01-20T11:23:32.396Z,99253.03
2024-01-20T11:26:11.294Z,99261.75
2024-01-20T11:28:46.630Z,99255.19
2024-01-20T11:31:21.070Z,99258.28
2024-01-20T11:33:48.464Z,99262.72
2024-01-20T11:36:17.364Z,99262.72
2024-01-20T11:38:45.140Z,99264.38
2024-01-20T11:41:12.625Z,99267.38
2024-01-20T11:43:46.563Z,99263.28
2024-01-20T11:46:13.885Z,99261.88
2024-01-20T11:48:41.698Z,99263.56
2024-01-20T11:51:08.857Z,99264.16
2024-01-20T11:53:36.027Z,99274.91
2024-01-20T11:56:04.439Z,99271.75
2024-01-20T11:58:32.009Z,99276.78
2024-01-20T12:01:00.795Z,99278.34
2024-01-20T12:03:28.713Z,99283.59
2024-01-20T12:05:56.723Z,99289.91
2024-01-20T12:08:24.000Z,99283.25
2024-01-20T12:10:52.197Z,99287.81
2024-01-20T12:13:19.650Z,99293.28
2024-01-20T12:15:49.210Z,99297.59
2024-01-20T12:18:18.456Z,99291.50
2024-01-20T12:20:45.917Z,99300.31
2024-01-20T12:23:24.211Z,99301.66
2024-01-20T12:25:54.647Z,99297.47
2024-01-20T12:28:22.677Z,99301.50
2024-01-20T12:30:50.334Z,99308.56
2024-01-20T12:33:17.554Z,99303.56
2024-01-20T12:35:44.963Z,99309.50
2024-01-20T12:38:12.526Z,99310.81
2024-01-20T12:40:39.587Z,99305.19
2024-01-20T12:43:06.821Z,99317.34
2024-01-20T12:45:34.130Z,99319.25
2024-01-20T12:48:01.317Z,99323.44
2024-01-20T12:50:28.548Z,99326.91
2024-01-20T12:52:55.738Z,99315.19
2024-01-20T12:55:22.969Z,99330.44
2024-01-20T12:57:50.122Z,99325.66
2024-01-20T13:00:17.658Z,99333.66
2024-01-20T13:02:44.941Z,99332.38
2024-01-20T13:05:12.098Z,99348.13
2024-01-20T13:07:39.517Z,99342.38
2024-01-20T13:10:07.052Z,99347.63
2024-01-20T13:12:34.414Z,99345.66
2024-01-20T13:15:01.930Z,99341.25
2024-01-20T13:17:32.879Z,99338.53
2024-01-20T13:20:00.016Z,99346.13
2024-01-20T13:22:27.935Z,99343.41
2024-01-20T13:24:58.347Z,99344.47
2024-01-20T13:27:25.668Z,99347.56
2024-01-20T13:29:52.803Z,99350.81
2024-01-20T13:32:19.894Z,99357.84
2024-01-20T13:34:47.192Z,99359.53
2024-01-20T13:37:14.442Z,99367.41
2024-01-20T13:39:41.660Z,99369.56
2024-01-20T13:42:08.935Z,99362.63
2024-01-20T13:44:36.038Z,99374.22
2024-01-20T13:47:03.200Z,99370.63
2024-01-20T13:49:32.379Z,99375.28
2024-01-20T13:51:59.664Z,99381.34
2024-01-20T13:54:26.991Z,99383.16
2024-01-20T13:56:54.061Z,99379.56
2024-01-20T13:59:21.116Z,99379.25
2024-01-20T14:01:49.114Z,99382.34
2024-01-20T14:04:16.355Z,99387.00
2024-01-20T14:06:43.605Z,99378.38
2024-01-20T14:09:11.351Z,99380.31
2024-01-20T14:11:38.606Z,99388.56
2024-01-20T14:14:05.748Z,99397.72
2024-01-20T14:16:33.005Z,99393.13
2024-01-20T14:19:01.085Z,99397.34
2024-01-20T14:21:29.185Z,99394.56
2024-01-20T14:23:56.373Z,99398.69
2024-01-20T14:26:23.481Z,99411.56
2024-01-20T14:28:51.261Z,99408.00
2024-01-20T14:31:18.369Z,99406.09
2024-01-20T14:33:45.468Z,99409.66
2024-01-20T14:36:12.556Z,99413.25
2024-01-20T14:38:39.683Z,99409.66
2024-01-20T14:41:06.849Z,99413.00
2024-01-20T14:43:33.946Z,99405.97
2024-01-20T14:46:01.089Z,99415.41
2024-01-20T14:48:28.240Z,99421.41
2024-01-20T14:50:55.409Z,99424.63
2024-01-20T14:53:24.436Z,99422.31
2024-01-20T14:55:51.551Z,99429.16
2024-01-20T14:58:18.671Z,99427.09
2024-01-20T15:00:46.010Z,99426.66
2024-01-20T15:03:13.426Z,99426.66
2024-01-20T15:05:40.635Z,99431.91
2024-01-20T15:08:07.956Z,99432.34
2024-01-20T15:10:35.026Z,99433.69
2024-01-20T15:13:03.331Z,99434.53
2024-01-20T15:15:30.620Z,99439.44
2024-01-20T15:17:57.789Z,99445.50
2024-01-20T15:20:24.898Z,99431.78
2024-01-20T15:22:52.039Z,99444.22
2024-01-20T15:25:20.072Z,99451.03
2024-01-20T15:27:49.075Z,99456.16
2024-01-20T15:30:16.352Z,99460.38
2024-01-20T15:32:43.612Z,99453.81
2024-01-20T15:35:10.885Z,99450.09
2024-01-20T15:37:37.933Z,99452.00
2024-01-20T15:40:11.333Z,99454.50
2024-01-20T15:42:41.599Z,99451.44
2024-01-20T15:45:09.543Z,99454.66
2024-01-20T15:47:36.681Z,99458.03
2024-01-20T15:50:05.126Z,99459.31
2024-01-20T15:52:32.439Z,99469.94
2024-01-20T15:55:00.471Z,99480.53
2024-01-20T15:57:27.770Z,99478.88
2024-01-20T15:59:54.971Z,99481.59
2024-01-20T16:02:22.134Z,99482.34
2024-01-20T16:04:49.199Z,99479.31
2024-01-20T16:07:16.658Z,99484.66
2024-01-20T16:09:44.101Z,99484.56
2024-01-20T16:12:11.673Z,99477.19
2024-01-20T16:14:38.886Z,99490.66
2024-01-20T16:17:05.970Z,99499.06
2024-01-20T16:19:33.137Z,99497.13
2024-01-20T16:22:00.311Z,99495.69
2024-01-20T16:24:27.550Z,99491.88
2024-01-20T16:26:54.836Z,99507.53
2024-01-20T16:29:21.995Z,99498.81
2024-01-20T16:31:49.362Z,99496.19
2024-01-20T16:34:16.671Z,99497.66
2024-01-20T16:36:44.110Z,99498.94
2024-01-20T16:39:11.811Z,99502.28
2024-01-20T16:41:42.005Z,99504.91
2024-01-20T16:44:09.113Z,99509.50
2024-01-20T16:46:39.437Z,99511.38
2024-01-20T16:49:07.058Z,99508.66
2024-01-20T16:51:34.262Z,99515.81
2024-01-20T16:54:04.445Z,99511.50
2024-01-20T16:56:31.479Z,99509.50
2024-01-20T16:59:01.712Z,99509.09
2024-01-20T17:01:28.795Z,99520.22
2024-01-20T17:03:55.877Z,99524.91
2024-01-20T17:06:23.670Z,99520.84
2024-01-20T17:08:50.860Z,99526.81
2024-01-20T17:11:18.016Z,99531.94
2024-01-20T17:13:46.118Z,99529.00
2024-01-20T17:16:13.245Z,99532.34
2024-01-20T17:18:40.511Z,99531.13
2024-01-20T17:21:16.461Z,99535.63
2024-01-20T17:23:44.750Z,99544.75
2024-01-20T17:26:12.176Z,99545.00
2024-01-20T17:28:39.378Z,99546.53
2024-01-20T17:31:06.540Z,99540.34
2024-01-20T17:33:33.743Z,99545.38
2024-01-20T17:36:01.529Z,99542.00
2024-01-20T17:38:28.555Z,99543.91
2024-01-20T17:40:56.074Z,99545.91
2024-01-20T17:43:23.100Z,99550.47
2024-01-20T17:45:50.525Z,99543.28
2024-01-20T17:48:17.944Z,99552.13
2024-01-20T17:50:45.141Z,99560.22
2024-01-20T17:53:13.804Z,99558.56
2024-01-20T17:55:41.514Z,99562.88
2024-01-20T17:58:10.342Z,99566.44
2024-01-20T18:00:38.183Z,99570.00
2024-01-20T18:03:14.749Z,99569.78
2024-01-20T18:05:42.035Z,99569.56
2024-01-20T18:08:10.093Z,99567.91
2024-01-20T18:10:37.130Z,99586.06
2024-01-20T18:13:06.886Z,99580.81
2024-01-20T18:15:34.096Z,99569.78
2024-01-20T18:18:02.234Z,99573.38
2024-01-20T18:20:29.512Z,99580.28
2024-01-20T18:22:56.603Z,99579.47
2024-01-20T18:25:23.701Z,99578.41
2024-01-20T18:27:51.024Z,99584.09
2024-01-20T18:30:19.094Z,99584.53
2024-01-20T18:32:46.229Z,99583.88
2024-01-20T18:35:13.325Z,99581.53
2024-01-20T18:37:43.015Z,99587.03
2024-01-20T18:40:11.386Z,99589.56
2024-01-20T18:42:38.979Z,99596.50
2024-01-20T18:45:06.874Z,99592.94
2024-01-20T18:47:34.036Z,99594.25
2024-01-20T18:50:01.144Z,99603.22
2024-01-20T18:52:29.085Z,99596.50
2024-01-20T18:54:56.323Z,99596.94
2024-01-20T18:57:23.640Z,99599.56
2024-01-20T18:59:50.769Z,99601.13
2024-01-20T19:02:19.800Z,99599.06
2024-01-20T19:04:47.193Z,99603.56
2024-01-20T19:07:14.367Z,99604.63
2024-01-20T19:09:41.600Z,99612.28
2024-01-20T19:12:09.041Z,99608.44
2024-01-20T19:14:36.314Z,99610.66
2024-01-20T19:17:03.450Z,99603.47
2024-01-20T19:19:32.922Z,99613.06
2024-01-20T19:21:59.989Z,99608.53
2024-01-20T19:24:27.402Z,99617.34
2024-01-20T19:26:54.478Z,99619.56
2024-01-20T19:29:23.976Z,99620.06
2024-01-20T19:31:51.234Z,99620.06
2024-01-20T19:34:19.072Z,99614.06
2024-01-20T19:36:46.703Z,99621.63
2024-01-20T19:39:14.472Z,99627.22
2024-01-20T19:41:41.609Z,99621.13
2024-01-20T19:44:08.781Z,99625.84
2024-01-20T19:46:41.135Z,99626.41
2024-01-20T19:49:08.864Z,99633.84
2024-01-20T19:51:41.555Z,99643.19
2024-01-20T19:54:09.735Z,99637.09
2024-01-20T19:56:42.521Z,99644.34
2024-01-20T19:59:10.409Z,99651.19
2024-01-20T20:01:45.745Z,99647.19
2024-01-20T20:04:17.748Z,99648.66
2024-01-20T20:06:49.409Z,99643.00
2024-01-20T20:09:17.961Z,99643.00
2024-01-20T20:11:45.276Z,99650.34
2024-01-20T20:14:13.378Z,99650.03
2024-01-20T20:16:41.583Z,99649.09
2024-01-20T20:19:10.683Z,99659.47
2024-01-20T20:21:38.038Z,99654.16
2024-01-20T20:24:05.755Z,99656.44
2024-01-20T20:26:32.900Z,99659.41
2024-01-20T20:29:00.057Z,99662.72
2024-01-20T20:31:28.380Z,99661.47
2024-01-20T20:33:55.817Z,99670.81
2024-01-20T20:36:23.064Z,99671.97
2024-01-20T20:38:50.295Z,99677.03
2024-01-20T20:41:17.488Z,99675.13
2024-01-20T20:43:44.547Z,99668.59
2024-01-20T20:46:11.566Z,99678.47
2024-01-20T20:48:38.703Z,99682.91
2024-01-20T20:51:06.011Z,99682.06
2024-01-20T20:53:33.117Z,99686.97
2024-01-20T20:56:00.257Z,99694.22
2024-01-20T20:58:27.374Z,99694.75
2024-01-20T21:00:54.562Z,99690.97
2024-01-20T21:03:21.948Z,99700.84
2024-01-20T21:05:49.532Z,99707.56
2024-01-20T21:08:17.067Z,99705.03
2024-01-20T21:10:44.145Z,99707.03
2024-01-20T21:13:11.596Z,99714.69
2024-01-20T21:15:39.325Z,99710.91
2024-01-20T21:18:06.650Z,99719.81
2024-01-20T21:20:34.148Z,99731.84
2024-01-20T21:23:01.321Z,99733.91
2024-01-20T21:25:30.701Z,99734.91
2024-01-20T21:27:58.563Z,99731.03
2024-01-20T21:30:25.760Z,99744.06
2024-01-20T21:32:53.097Z,99748.75
2024-01-20T21:35:20.430Z,99754.56
2024-01-20T21:37:47.702Z,99756.09
2024-01-20T21:40:14.948Z,99756.56
2024-01-20T21:42:42.178Z,99756.75
2024-01-20T21:45:10.964Z,99764.25
2024-01-20T21:47:38.323Z,99764.47
2024-01-20T21:50:06.589Z,99775.00
2024-01-20T21:52:33.724Z,99774.34
2024-01-20T21:55:02.930Z,99773.31
2024-01-20T21:57:33.247Z,99772.03
2024-01-20T22:00:00.580Z,99781.66
2024-01-20T22:02:28.775Z,99778.81
2024-01-20T22:04:55.815Z,99780.69
2024-01-20T22:07:23.632Z,99776.56
2024-01-20T22:09:50.859Z,99777.88
2024-01-20T22:12:18.113Z,99788.16
2024-01-20T22:14:45.275Z,99787.00
2024-01-20T22:17:12.459Z,99779.53
2024-01-20T22:19:39.696Z,99783.38
2024-01-20T22:22:07.013Z,99789.44
2024-01-20T22:24:34.268Z,99786.22
2024-01-20T22:27:01.402Z,99793.31
2024-01-20T22:29:31.793Z,99802.47
2024-01-20T22:32:00.213Z,99803.41
2024-01-20T22:34:32.346Z,99794.03
2024-01-20T22:37:00.544Z,99805.88
2024-01-20T22:39:28.561Z,99804.34
2024-01-20T22:41:55.868Z,99819.78
2024-01-20T22:44:22.980Z,99819.63
2024-01-20T22:46:51.116Z,99814.38
2024-01-20T22:49:18.556Z,99827.63
2024-01-20T22:51:45.816Z,99824.91
2024-01-20T22:54:15.084Z,99831.41
2024-01-20T22:56:42.248Z,99835.69
2024-01-20T22:59:09.426Z,99830.47
2024-01-20T23:01:36.650Z,99835.88
2024-01-20T23:04:06.475Z,99833.00
2024-01-20T23:06:33.816Z,99842.13
2024-01-20T23:09:02.285Z,99851.75
2024-01-20T23:11:29.480Z,99854.94
2024-01-20T23:13:56.796Z,99859.22
2024-01-20T23:16:23.878Z,99863.63
2024-01-20T23:18:51.490Z,99870.22
2024-01-20T23:21:18.688Z,99870.09
2024-01-20T23:23:45.820Z,99876.34
2024-01-20T23:26:17.448Z,99869.44
2024-01-20T23:28:44.720Z,99874.34
2024-01-20T23:31:12.382Z,99888.41
2024-01-20T23:33:39.856Z,99884.66
2024-01-20T23:36:07.447Z,99892.41
2024-01-20T23:38:34.987Z,99887.00
2024-01-20T23:41:02.159Z,99890.72
2024-01-20T23:43:29.215Z,99891.00
2024-01-20T23:45:56.477Z,99898.22
2024-01-20T23:48:23.741Z,99897.41
2024-01-20T23:50:51.044Z,99896.63
2024-01-20T23:53:18.232Z,99901.59
2024-01-20T23:55:45.433Z,99909.53
2024-01-20T23:58:12.663Z,99904.72
